Time;durP1;ratioP1;P1;durP2;ratioP2;P2;SDS_P1;SDS_P2;PMS_P1;PMS_P2;Temp;Humidity;BMP_temperature;BMP_pressure;BME280_temperature;BME280_humidity;BME280_pressure;Samples;Min_cycle;Max_cycle;Signal;HPM_P1;HPM_P2
2023/12/31 00:00:32;;;;;;;1999.90;999.90;;;9.20;99.90;;;;;;5033647;28;20464;-74
2023/12/31 00:02:58;;;;;;;1999.90;999.90;;;9.30;99.90;;;;;;5033415;28;20929;-71
2023/12/31 00:05:24;;;;;;;1999.90;999.90;;;9.10;99.90;;;;;;5033426;28;20399;-74
2023/12/31 00:07:49;;;;;;;1999.90;999.90;;;9.40;99.90;;;;;;5033582;28;20400;-71
2023/12/31 00:10:17;;;;;;;1999.90;999.90;;;9.20;99.90;;;;;;5033399;28;20175;-72
2023/12/31 00:12:43;;;;;;;1999.90;999.90;;;9.30;99.90;;;;;;5033147;28;20216;-73
2023/12/31 00:15:09;;;;;;;1999.90;999.90;;;9.10;99.90;;;;;;5033269;28;20777;-71
2023/12/31 00:17:34;;;;;;;1999.90;999.90;;;9.10;99.90;;;;;;5033226;28;20520;-72
2023/12/31 00:20:00;;;;;;;1999.90;999.90;;;9.10;99.90;;;;;;5033277;28;20233;-71
2023/12/31 00:22:26;;;;;;;1999.90;999.90;;;9.10;99.90;;;;;;5033374;28;20182;-71
2023/12/31 00:24:54;;;;;;;1999.90;999.90;;;9.10;99.90;;;;;;5033169;28;20768;-71
2023/12/31 00:27:20;;;;;;;1999.90;999.90;;;9.00;99.90;;;;;;5032502;28;20211;-71
2023/12/31 00:29:45;;;;;;;1999.90;999.90;;;9.40;99.90;;;;;;5032922;28;20424;-72
2023/12/31 00:32:11;;;;;;;1999.90;999.90;;;9.20;99.90;;;;;;5032713;28;20410;-72
2023/12/31 00:34:37;;;;;;;1999.90;999.90;;;9.30;99.90;;;;;;5032907;28;20170;-73
2023/12/31 00:37:03;;;;;;;1999.90;999.90;;;9.20;99.90;;;;;;5032884;28;20200;-71
2023/12/31 00:39:29;;;;;;;1999.90;999.90;;;9.20;99.90;;;;;;5032853;28;20569;-72
2023/12/31 00:41:54;;;;;;;1999.90;999.90;;;9.30;99.90;;;;;;5032522;28;20412;-71
2023/12/31 00:44:20;;;;;;;1999.90;999.90;;;9.20;99.90;;;;;;5032717;28;20169;-72
2023/12/31 00:46:46;;;;;;;1999.90;999.90;;;9.30;99.90;;;;;;5032668;28;20221;-72
2023/12/31 00:49:11;;;;;;;1999.90;999.90;;;9.50;99.90;;;;;;5032700;28;20184;-72
2023/12/31 00:51:37;;;;;;;1999.90;999.90;;;9.70;99.90;;;;;;5032524;28;20170;-72
2023/12/31 00:54:03;;;;;;;1999.90;999.90;;;9.50;99.90;;;;;;5032505;28;20257;-73
2023/12/31 00:56:28;;;;;;;1999.90;999.90;;;9.60;99.90;;;;;;5032546;28;20280;-72
2023/12/31 00:58:54;;;;;;;1999.90;999.90;;;9.60;99.90;;;;;;5032487;28;20256;-72
2023/12/31 01:01:20;;;;;;;1999.90;999.90;;;9.50;99.90;;;;;;5032375;28;20175;-72
2023/12/31 01:03:47;;;;;;;1999.90;999.90;;;9.60;99.90;;;;;;5032402;28;20815;-71
2023/12/31 01:06:13;;;;;;;1999.90;999.90;;;9.60;99.90;;;;;;5032365;28;20190;-71
2023/12/31 01:08:38;;;;;;;1999.90;999.90;;;9.70;99.90;;;;;;5032356;28;20406;-72
2023/12/31 01:11:04;;;;;;;1999.90;999.90;;;9.60;99.90;;;;;;5032232;28;20174;-71
2023/12/31 01:13:31;;;;;;;1999.90;999.90;;;9.60;99.90;;;;;;5031980;28;20174;-71
2023/12/31 01:15:56;;;;;;;1999.90;999.90;;;9.60;99.90;;;;;;5032230;28;20192;-71
2023/12/31 01:18:22;;;;;;;1999.90;999.90;;;9.60;99.90;;;;;;5032106;28;20416;-72
2023/12/31 01:20:47;;;;;;;1999.90;999.90;;;9.70;99.90;;;;;;5032150;28;20630;-73
2023/12/31 01:23:13;;;;;;;1999.90;999.90;;;9.50;99.90;;;;;;5031890;28;20180;-72
2023/12/31 01:25:39;;;;;;;1999.90;999.90;;;9.50;99.90;;;;;;5031680;28;20197;-71
2023/12/31 01:28:05;;;;;;;1999.90;999.90;;;9.50;99.90;;;;;;5032332;28;20202;-72
2023/12/31 01:30:31;;;;;;;1999.90;999.90;;;9.60;99.90;;;;;;5031978;28;20464;-71
2023/12/31 01:32:56;;;;;;;1999.90;999.90;;;9.70;99.90;;;;;;5031781;28;20177;-71
2023/12/31 01:35:22;;;;;;;1999.90;999.90;;;9.90;99.90;;;;;;5031831;28;20536;-72
2023/12/31 01:37:47;;;;;;;1999.90;999.90;;;9.70;96.90;;;;;;5031965;28;20174;-72
2023/12/31 01:40:13;;;;;;;1999.90;999.90;;;9.70;94.50;;;;;;5031066;28;20221;-71
2023/12/31 01:42:39;;;;;;;1999.90;999.90;;;9.70;94.00;;;;;;5031746;28;20269;-72
2023/12/31 01:45:05;;;;;;;1999.90;999.90;;;9.70;94.00;;;;;;5031766;28;20400;-71
2023/12/31 01:47:36;;;;;;;1999.90;999.90;;;9.70;93.50;;;;;;5031857;28;20197;-72
2023/12/31 01:50:04;;;;;;;1999.90;999.90;;;9.60;94.60;;;;;;5031905;28;20416;-72
2023/12/31 01:52:31;;;;;;;1999.90;999.90;;;9.60;96.10;;;;;;5031572;28;20407;-72
2023/12/31 01:55:00;;;;;;;1999.90;999.90;;;9.60;97.40;;;;;;5031885;28;20413;-72
2023/12/31 01:57:31;;;;;;;1999.90;999.90;;;9.50;98.60;;;;;;5031727;28;20445;-72
2023/12/31 01:59:58;;;;;;;1999.90;999.90;;;9.60;99.80;;;;;;5031707;28;20456;-72
2023/12/31 02:02:24;;;;;;;1999.90;999.90;;;9.60;99.90;;;;;;5031542;28;20414;-71
2023/12/31 02:04:51;;;;;;;1999.90;999.90;;;9.50;99.90;;;;;;5031738;28;20421;-72
2023/12/31 02:07:17;;;;;;;1999.90;999.90;;;9.60;99.90;;;;;;5031525;28;20432;-72
2023/12/31 02:09:43;;;;;;;1999.90;999.90;;;9.60;99.90;;;;;;5031672;28;20449;-71
2023/12/31 02:12:09;;;;;;;1999.90;999.90;;;9.70;99.90;;;;;;5031405;28;20441;-72
2023/12/31 02:14:35;;;;;;;1999.90;999.90;;;9.80;99.90;;;;;;5031542;28;20402;-72
2023/12/31 02:17:00;;;;;;;1999.90;999.90;;;9.70;99.90;;;;;;5031919;28;20428;-73
2023/12/31 02:19:26;;;;;;;1999.90;999.90;;;9.60;99.90;;;;;;5031632;28;20234;-71
2023/12/31 02:21:51;;;;;;;1999.90;999.90;;;9.60;99.90;;;;;;5031434;28;20171;-72
2023/12/31 02:24:20;;;;;;;1999.90;999.90;;;9.60;99.90;;;;;;5031534;28;20171;-72
2023/12/31 02:26:45;;;;;;;1999.90;999.90;;;9.70;99.90;;;;;;5031428;28;20212;-72
2023/12/31 02:29:11;;;;;;;1999.90;999.90;;;9.50;99.90;;;;;;5031433;28;20426;-73
2023/12/31 02:31:37;;;;;;;1999.90;999.90;;;9.40;99.90;;;;;;5031348;28;20170;-73
2023/12/31 02:34:03;;;;;;;1999.90;999.90;;;9.50;99.90;;;;;;5031487;28;20178;-74
2023/12/31 02:36:28;;;;;;;1999.90;999.90;;;9.50;99.90;;;;;;5031641;28;20432;-72
2023/12/31 02:38:54;;;;;;;1999.90;999.90;;;9.60;99.90;;;;;;5031469;28;20204;-71
2023/12/31 02:41:20;;;;;;;1999.90;999.90;;;9.40;99.90;;;;;;5031311;28;20539;-72
2023/12/31 02:43:45;;;;;;;1999.90;999.90;;;9.30;99.90;;;;;;5031224;28;20174;-72
2023/12/31 02:46:11;;;;;;;1999.90;999.90;;;9.40;99.90;;;;;;5031371;28;20186;-73
2023/12/31 02:48:36;;;;;;;1999.90;999.90;;;9.40;99.90;;;;;;5031420;28;20189;-71
2023/12/31 02:51:02;;;;;;;1999.90;999.90;;;9.50;99.90;;;;;;5032249;28;20166;-72
2023/12/31 02:53:28;;;;;;;1999.90;999.90;;;9.40;99.90;;;;;;5034745;28;20171;-72
2023/12/31 02:55:53;;;;;;;1999.90;999.90;;;9.50;99.90;;;;;;5035067;28;20429;-72
2023/12/31 02:58:19;;;;;;;1999.90;999.90;;;9.30;99.90;;;;;;5035012;28;20266;-74
2023/12/31 03:00:44;;;;;;;1999.90;999.90;;;9.40;99.90;;;;;;5034883;28;20633;-72
2023/12/31 03:03:10;;;;;;;1999.90;999.90;;;9.40;99.90;;;;;;5034944;28;20182;-72
2023/12/31 03:05:36;;;;;;;1999.90;999.90;;;9.50;99.90;;;;;;5034945;28;20261;-72
2023/12/31 03:08:01;;;;;;;1999.90;999.90;;;9.40;99.90;;;;;;5034976;28;20167;-72
2023/12/31 03:10:27;;;;;;;1999.90;999.90;;;9.50;99.90;;;;;;5034876;28;20323;-72
2023/12/31 03:12:53;;;;;;;1999.90;999.90;;;9.50;99.90;;;;;;5034555;28;20178;-72
2023/12/31 03:15:20;;;;;;;1999.90;999.90;;;9.60;99.90;;;;;;5034406;28;20934;-72
2023/12/31 03:17:46;;;;;;;1999.90;999.90;;;9.40;99.90;;;;;;5034707;28;20670;-73
2023/12/31 03:20:11;;;;;;;1999.90;999.90;;;9.50;99.90;;;;;;5034523;28;20527;-72
2023/12/31 03:22:37;;;;;;;1999.90;999.90;;;9.40;99.90;;;;;;5034438;28;20175;-72
2023/12/31 03:25:04;;;;;;;1999.90;999.90;;;9.30;99.90;;;;;;5034504;28;20170;-72
2023/12/31 03:27:29;;;;;;;1999.90;999.90;;;9.30;99.90;;;;;;5034365;28;20792;-72
2023/12/31 03:29:55;;;;;;;1999.90;999.90;;;9.30;99.90;;;;;;5034422;28;20462;-72
2023/12/31 03:32:20;;;;;;;1999.90;999.90;;;9.20;99.90;;;;;;5034387;28;20166;-72
2023/12/31 03:34:46;;;;;;;1999.90;999.90;;;9.20;99.90;;;;;;5034292;28;20213;-72
2023/12/31 03:37:11;;;;;;;1999.90;999.90;;;9.20;99.90;;;;;;5034223;28;20656;-73
2023/12/31 03:39:37;;;;;;;1999.90;999.90;;;9.20;99.90;;;;;;5033979;28;20281;-73
2023/12/31 03:42:03;;;;;;;1999.90;999.90;;;9.20;99.90;;;;;;5033782;28;20175;-73
2023/12/31 03:44:29;;;;;;;1999.90;999.90;;;9.10;99.90;;;;;;5034000;28;20178;-73
2023/12/31 03:46:54;;;;;;;1999.90;999.90;;;9.00;99.90;;;;;;5033829;28;20444;-73
2023/12/31 03:49:20;;;;;;;1999.90;999.90;;;9.20;99.90;;;;;;5033803;28;20168;-73
2023/12/31 03:51:45;;;;;;;1999.90;999.90;;;9.00;99.90;;;;;;5033837;28;20185;-73
2023/12/31 03:54:11;;;;;;;1999.90;999.90;;;9.00;99.90;;;;;;5033778;28;20173;-73
2023/12/31 03:56:36;;;;;;;1999.90;999.90;;;9.00;99.90;;;;;;5033585;28;20197;-72
2023/12/31 03:59:02;;;;;;;1999.90;999.90;;;9.00;99.90;;;;;;5033598;28;20225;-73
2023/12/31 04:01:28;;;;;;;1999.90;999.90;;;9.00;99.90;;;;;;5033419;28;20157;-73
2023/12/31 04:03:54;;;;;;;1999.90;999.90;;;9.40;99.90;;;;;;5032644;28;20172;-73
2023/12/31 04:06:19;;;;;;;1999.90;999.90;;;9.00;99.90;;;;;;5033453;28;20425;-73
2023/12/31 04:08:46;;;;;;;1999.90;999.90;;;8.90;99.90;;;;;;5033483;28;20170;-73
2023/12/31 04:11:12;;;;;;;1999.90;999.90;;;8.90;99.90;;;;;;5033258;28;20788;-73
2023/12/31 04:13:41;;;;;;;1999.90;999.90;;;8.90;99.90;;;;;;5033349;28;20502;-73
2023/12/31 04:16:08;;;;;;;1999.90;999.90;;;9.00;99.90;;;;;;5033258;28;20432;-72
2023/12/31 04:18:34;;;;;;;1999.90;999.90;;;9.10;99.90;;;;;;5033138;28;20412;-73
2023/12/31 04:21:00;;;;;;;1999.90;999.90;;;8.90;99.90;;;;;;5033349;28;20767;-73
2023/12/31 04:23:26;;;;;;;1999.90;999.90;;;8.80;99.90;;;;;;5032976;28;20165;-73
2023/12/31 04:25:51;;;;;;;1999.90;999.90;;;9.10;99.90;;;;;;5032855;28;20466;-73
2023/12/31 04:28:17;;;;;;;1999.90;999.90;;;8.80;99.90;;;;;;5033101;28;20638;-73
2023/12/31 04:30:43;;;;;;;1999.90;999.90;;;8.80;99.90;;;;;;5033091;28;20229;-73
2023/12/31 04:33:09;;;;;;;1999.90;999.90;;;9.00;99.90;;;;;;5032763;28;20408;-73
2023/12/31 04:35:34;;;;;;;1999.90;999.90;;;8.80;99.90;;;;;;5032873;28;20173;-73
2023/12/31 04:38:00;;;;;;;1999.90;999.90;;;8.80;99.90;;;;;;5032984;28;20172;-73
2023/12/31 04:40:26;;;;;;;1999.90;999.90;;;9.00;99.90;;;;;;5032764;28;20196;-73
2023/12/31 04:42:51;;;;;;;1999.90;999.90;;;8.70;99.90;;;;;;5032649;28;20170;-73
2023/12/31 04:45:17;;;;;;;1999.90;999.90;;;8.90;99.90;;;;;;5032725;28;20173;-73
2023/12/31 04:47:43;;;;;;;1999.90;999.90;;;8.70;99.90;;;;;;5032694;28;20185;-73
2023/12/31 04:50:08;;;;;;;1999.90;999.90;;;8.70;99.90;;;;;;5032747;28;20250;-73
2023/12/31 04:52:34;;;;;;;1999.90;999.90;;;8.90;99.90;;;;;;5032606;28;20187;-73
2023/12/31 04:54:59;;;;;;;1999.90;999.90;;;8.80;99.90;;;;;;5032507;28;20170;-74
2023/12/31 04:57:25;;;;;;;1999.90;999.90;;;8.80;99.90;;;;;;5032468;28;20224;-74
2023/12/31 04:59:51;;;;;;;1999.90;999.90;;;8.80;99.90;;;;;;5032506;28;20218;-73
2023/12/31 05:02:17;;;;;;;1999.90;999.90;;;8.80;99.90;;;;;;5032260;28;20173;-73
2023/12/31 05:04:43;;;;;;;1999.90;999.90;;;8.70;99.90;;;;;;5032583;28;20185;-73
2023/12/31 05:07:09;;;;;;;1999.90;999.90;;;8.80;99.90;;;;;;5032346;28;20426;-73
2023/12/31 05:09:35;;;;;;;1999.90;999.90;;;8.90;99.90;;;;;;5032440;28;20223;-73
2023/12/31 05:12:01;;;;;;;1999.90;999.90;;;9.10;99.90;;;;;;5032096;28;20905;-73
2023/12/31 05:14:27;;;;;;;1999.90;999.90;;;8.80;99.90;;;;;;5032206;28;20415;-73
2023/12/31 05:16:52;;;;;;;1999.90;999.90;;;8.90;99.90;;;;;;5032129;28;20668;-73
2023/12/31 05:19:18;;;;;;;1999.90;999.90;;;9.00;99.90;;;;;;5032123;28;20284;-73
2023/12/31 05:21:43;;;;;;;1999.90;999.90;;;8.80;99.90;;;;;;5031975;28;20261;-73
2023/12/31 05:24:09;;;;;;;1999.90;999.90;;;9.00;99.90;;;;;;5032178;28;20258;-73
2023/12/31 05:26:34;;;;;;;1999.90;999.90;;;9.00;99.90;;;;;;5031959;28;20204;-73
2023/12/31 05:29:01;;;;;;;1999.90;999.90;;;9.00;99.90;;;;;;5067005;23;20308;-74
2023/12/31 05:31:26;;;;;;;1999.90;999.90;;;9.20;99.90;;;;;;5012756;28;20170;-75
2023/12/31 05:33:52;;;;;;;1999.90;999.90;;;9.00;99.90;;;;;;5012824;28;20410;-74
2023/12/31 05:36:17;;;;;;;1999.90;999.90;;;9.00;99.90;;;;;;5011601;28;20200;-74
2023/12/31 05:38:43;;;;;;;1999.90;999.90;;;9.00;99.90;;;;;;5012483;28;20204;-72
2023/12/31 05:41:09;;;;;;;1999.90;999.90;;;9.00;99.90;;;;;;5013193;28;20173;-74
2023/12/31 05:43:35;;;;;;;1999.90;999.90;;;9.00;99.90;;;;;;5012607;28;20218;-72
2023/12/31 05:46:00;;;;;;;1999.90;999.90;;;9.10;99.90;;;;;;5013082;28;20594;-74
2023/12/31 05:48:26;;;;;;;1999.90;999.90;;;8.90;99.90;;;;;;5012521;28;20165;-73
2023/12/31 05:50:52;;;;;;;1999.90;999.90;;;9.10;99.90;;;;;;5012527;28;20179;-74
2023/12/31 05:53:18;;;;;;;1999.90;999.90;;;9.10;99.90;;;;;;5011266;28;20174;-75
2023/12/31 05:55:44;;;;;;;1999.90;999.90;;;9.10;99.90;;;;;;5014616;28;20185;-75
2023/12/31 05:58:10;;;;;;;1999.90;999.90;;;9.10;99.90;;;;;;5012521;28;20187;-74
2023/12/31 06:00:35;;;;;;;1999.90;999.90;;;9.00;99.90;;;;;;5014061;28;20472;-75
2023/12/31 06:03:01;;;;;;;1999.90;999.90;;;9.10;99.90;;;;;;5012530;28;20796;-75
2023/12/31 06:05:26;;;;;;;1999.90;999.90;;;9.10;99.90;;;;;;5004154;28;20629;-73
2023/12/31 06:07:52;;;;;;;1999.90;999.90;;;9.10;99.90;;;;;;5012926;28;20175;-74
2023/12/31 06:10:18;;;;;;;1999.90;999.90;;;9.20;99.90;;;;;;5012103;28;20213;-74
2023/12/31 06:12:43;;;;;;;1999.90;999.90;;;9.10;99.90;;;;;;5012208;28;20258;-74
2023/12/31 06:15:11;;;;;;;1999.90;999.90;;;9.40;99.90;;;;;;5012644;28;20265;-73
2023/12/31 06:17:36;;;;;;;1999.90;999.90;;;9.20;99.90;;;;;;5012671;28;20305;-75
2023/12/31 06:20:04;;;;;;;1999.90;999.90;;;9.20;99.90;;;;;;5012780;28;20544;-74
2023/12/31 06:22:30;;;;;;;1999.90;999.90;;;9.20;99.90;;;;;;5012480;28;20178;-74
2023/12/31 06:24:56;;;;;;;1999.90;999.90;;;9.30;99.90;;;;;;5012960;28;20497;-75
2023/12/31 06:27:23;;;;;;;1999.90;999.90;;;9.20;99.90;;;;;;5016146;28;20463;-72
2023/12/31 06:29:50;;;;;;;1999.90;999.90;;;9.30;99.90;;;;;;5016245;28;20262;-72
2023/12/31 06:32:16;;;;;;;1999.90;999.90;;;9.30;99.90;;;;;;5016513;28;20418;-74
2023/12/31 06:34:42;;;;;;;1999.90;999.90;;;9.30;99.90;;;;;;5016543;28;20407;-74
2023/12/31 06:37:07;;;;;;;1999.90;999.90;;;9.40;99.90;;;;;;5016622;28;20918;-74
2023/12/31 06:39:33;;;;;;;1999.90;999.90;;;9.40;99.90;;;;;;5015763;28;20231;-74
2023/12/31 06:41:59;;;;;;;1999.90;999.90;;;9.40;99.90;;;;;;5015814;28;20588;-73
2023/12/31 06:44:24;;;;;;;1999.90;999.90;;;9.40;99.90;;;;;;5016148;28;20179;-73
2023/12/31 06:46:50;;;;;;;1999.90;999.90;;;9.40;99.90;;;;;;5016172;28;20175;-74
2023/12/31 06:49:18;;;;;;;1999.90;999.90;;;9.50;99.90;;;;;;5015372;28;20201;-75
2023/12/31 06:51:44;;;;;;;1999.90;999.90;;;9.50;99.90;;;;;;5015207;28;20173;-75
2023/12/31 06:54:10;;;;;;;1999.90;999.90;;;9.50;99.90;;;;;;5016877;28;20418;-72
2023/12/31 06:56:35;;;;;;;1999.90;999.90;;;9.50;99.90;;;;;;5016171;28;20175;-74
2023/12/31 06:59:01;;;;;;;1999.90;999.90;;;9.50;99.90;;;;;;5015347;28;20199;-75
2023/12/31 07:01:26;;;;;;;1999.90;999.90;;;9.50;99.90;;;;;;5016601;28;20536;-74
2023/12/31 07:03:52;;;;;;;1999.90;999.90;;;9.50;99.90;;;;;;5015655;28;20172;-72
2023/12/31 07:06:17;;;;;;;1999.90;999.90;;;9.50;99.90;;;;;;5015705;28;20516;-73
2023/12/31 07:08:43;;;;;;;1999.90;999.90;;;9.50;99.90;;;;;;5016244;28;20195;-72
2023/12/31 07:11:11;;;;;;;1999.90;999.90;;;9.50;99.90;;;;;;5016812;28;20202;-75
2023/12/31 07:13:36;;;;;;;1999.90;999.90;;;9.60;99.90;;;;;;5015768;28;20199;-73
2023/12/31 07:16:02;;;;;;;1999.90;999.90;;;9.40;99.90;;;;;;5015694;28;20790;-74
2023/12/31 07:18:28;;;;;;;1999.90;999.90;;;9.40;99.90;;;;;;5016877;28;20181;-74
2023/12/31 07:20:56;;;;;;;1999.90;999.90;;;9.40;99.90;;;;;;5015228;28;20552;-74
2023/12/31 07:23:22;;;;;;;1999.90;999.90;;;9.50;99.90;;;;;;5016576;28;20309;-72
2023/12/31 07:25:48;;;;;;;1999.90;999.90;;;9.50;99.90;;;;;;5015711;28;20465;-73
2023/12/31 07:28:13;;;;;;;1999.90;999.90;;;9.50;99.90;;;;;;5015500;28;20179;-74
2023/12/31 07:30:44;;;;;;;1999.90;999.90;;;9.50;99.90;;;;;;5016588;28;20239;-74
2023/12/31 07:33:10;;;;;;;1999.90;999.90;;;9.50;99.90;;;;;;5015491;28;20171;-73
2023/12/31 07:35:36;;;;;;;1999.90;999.90;;;9.50;99.90;;;;;;5015943;28;20421;-75
2023/12/31 07:38:05;;;;;;;1999.90;999.90;;;9.50;99.90;;;;;;5014096;28;20411;-73
2023/12/31 07:40:31;;;;;;;1999.90;999.90;;;9.60;99.90;;;;;;5014858;28;20285;-74
2023/12/31 07:42:57;;;;;;;1999.90;999.90;;;9.50;99.90;;;;;;5014831;28;20993;-75
2023/12/31 07:45:23;;;;;;;1999.90;999.90;;;9.50;99.90;;;;;;5015151;28;20604;-72
2023/12/31 07:47:49;;;;;;;1999.90;999.90;;;9.60;99.90;;;;;;5015035;28;20220;-75
2023/12/31 07:50:14;;;;;;;1999.90;999.90;;;9.60;99.90;;;;;;5015168;28;20516;-73
2023/12/31 07:52:40;;;;;;;1999.90;999.90;;;9.70;99.90;;;;;;5014619;28;20187;-75
2023/12/31 07:55:08;;;;;;;1999.90;999.90;;;9.70;99.90;;;;;;5015136;28;20178;-75
2023/12/31 07:57:34;;;;;;;1999.90;999.90;;;9.70;99.90;;;;;;5013969;28;20185;-76
2023/12/31 08:00:01;;;;;;;1999.90;999.90;;;9.80;99.90;;;;;;5014068;28;20461;-72
2023/12/31 08:02:27;;;;;;;1999.90;999.90;;;9.80;99.90;;;;;;5014109;28;20472;-73
2023/12/31 08:04:54;;;;;;;1999.90;999.90;;;9.80;99.90;;;;;;5013928;28;20405;-74
2023/12/31 08:07:19;;;;;;;1999.90;999.90;;;9.90;99.90;;;;;;5014422;28;20163;-75
2023/12/31 08:09:45;;;;;;;1999.90;999.90;;;9.80;99.90;;;;;;5013579;28;20934;-75
2023/12/31 08:12:11;;;;;;;1999.90;999.90;;;9.90;99.90;;;;;;5013817;28;20190;-73
2023/12/31 08:14:36;;;;;;;1999.90;999.90;;;9.80;99.90;;;;;;5014096;28;20195;-73
2023/12/31 08:17:03;;;;;;;1999.90;999.90;;;9.90;99.90;;;;;;5015050;28;20166;-74
2023/12/31 08:19:28;;;;;;;1999.90;999.90;;;9.90;99.90;;;;;;5014398;28;20200;-75
2023/12/31 08:21:54;;;;;;;1999.90;999.90;;;9.90;99.90;;;;;;5012775;28;20513;-74
2023/12/31 08:24:21;;;;;;;1999.90;999.90;;;9.90;99.90;;;;;;5014169;28;20171;-73
2023/12/31 08:26:47;;;;;;;1999.90;999.90;;;9.90;99.90;;;;;;5014280;28;20172;-74
2023/12/31 08:29:12;;;;;;;1999.90;999.90;;;9.90;99.90;;;;;;5014241;28;20541;-74
2023/12/31 08:31:38;;;;;;;1999.90;999.90;;;9.90;99.90;;;;;;5014573;28;20540;-74
2023/12/31 08:34:04;;;;;;;1999.90;999.90;;;10.00;99.90;;;;;;5014340;28;20238;-74
2023/12/31 08:36:29;;;;;;;1999.90;999.90;;;10.00;99.90;;;;;;5014480;28;20180;-73
2023/12/31 08:38:56;;;;;;;1999.90;999.90;;;10.00;99.90;;;;;;5013508;28;20204;-74
2023/12/31 08:41:21;;;;;;;1999.90;999.90;;;10.00;99.90;;;;;;5014581;28;20172;-75
2023/12/31 08:43:48;;;;;;;1999.90;999.90;;;10.00;99.90;;;;;;5014255;28;20413;-72
2023/12/31 08:46:14;;;;;;;1999.90;999.90;;;10.10;99.90;;;;;;5014116;28;20171;-73
2023/12/31 08:48:42;;;;;;;1999.90;999.90;;;10.00;99.90;;;;;;5013701;28;20410;-74
2023/12/31 08:51:08;;;;;;;1999.90;999.90;;;10.30;99.90;;;;;;5013811;28;20406;-75
2023/12/31 08:53:34;;;;;;;1999.90;999.90;;;10.30;99.90;;;;;;5014005;28;20776;-75
2023/12/31 08:55:59;;;;;;;1999.90;999.90;;;10.30;99.90;;;;;;5014076;28;20700;-73
2023/12/31 08:58:25;;;;;;;1999.90;999.90;;;10.30;99.90;;;;;;5013558;28;20173;-74
2023/12/31 09:00:52;;;;;;;1999.90;999.90;;;10.30;99.90;;;;;;5013800;28;20206;-74
2023/12/31 09:03:18;;;;;;;1999.90;999.90;;;10.30;99.90;;;;;;5013210;28;20176;-75
2023/12/31 09:05:44;;;;;;;1999.90;999.90;;;10.40;99.90;;;;;;5012881;28;20515;-75
2023/12/31 09:08:09;;;;;;;1999.90;999.90;;;10.40;99.90;;;;;;5012282;28;20204;-74
2023/12/31 09:10:35;;;;;;;1999.90;999.90;;;10.30;99.90;;;;;;5011556;28;20208;-72
2023/12/31 09:13:02;;;;;;;1999.90;999.90;;;10.30;99.90;;;;;;5013318;28;20489;-74
2023/12/31 09:15:28;;;;;;;1999.90;999.90;;;10.30;99.90;;;;;;5012076;28;20561;-75
2023/12/31 09:17:54;;;;;;;1999.90;999.90;;;10.20;99.90;;;;;;5013726;28;20427;-74
2023/12/31 09:20:21;;;;;;;1999.90;999.90;;;10.30;99.90;;;;;;5013186;28;20205;-75
2023/12/31 09:22:52;;;;;;;1999.90;999.90;;;10.30;99.90;;;;;;5013498;28;20171;-72
2023/12/31 09:25:19;;;;;;;1999.90;999.90;;;10.50;99.90;;;;;;5013236;28;20418;-75
2023/12/31 09:27:45;;;;;;;1999.90;999.90;;;10.80;99.30;;;;;;5013044;28;20910;-74
2023/12/31 09:30:11;;;;;;;1999.90;999.90;;;10.90;99.80;;;;;;5012185;28;20470;-73
2023/12/31 09:32:36;;;;;;;1999.90;999.90;;;10.90;98.50;;;;;;5004114;28;20199;-74
2023/12/31 09:35:02;;;;;;;1999.90;999.90;;;11.00;97.90;;;;;;5013164;28;20469;-75
2023/12/31 09:37:29;;;;;;;1999.90;999.90;;;11.10;96.90;;;;;;5013066;28;20183;-72
2023/12/31 09:39:55;;;;;;;1999.90;999.90;;;11.10;90.60;;;;;;5012284;28;20207;-75
2023/12/31 09:42:28;;;;;;;1999.90;999.90;;;11.60;89.20;;;;;;5011906;28;20787;-74
2023/12/31 09:44:55;;;;;;;1999.90;999.90;;;11.20;85.90;;;;;;5012750;28;20290;-75
2023/12/31 09:47:21;;;;;;;1999.90;999.90;;;11.30;78.30;;;;;;5011228;28;20418;-73
2023/12/31 09:49:48;;;;;;;1999.90;999.90;;;11.30;64.00;;;;;;5012552;28;21027;-74
2023/12/31 09:52:15;;;;;;;1999.90;999.90;;;11.30;63.10;;;;;;5012171;28;20442;-75
2023/12/31 09:54:41;;;;;;;1999.90;999.90;;;11.30;58.10;;;;;;5012846;28;21159;-74
2023/12/31 09:57:07;;;;;;;1999.90;999.90;;;11.30;46.70;;;;;;5011938;28;20950;-74
2023/12/31 09:59:33;;;;;;;1999.90;999.90;;;11.30;45.00;;;;;;5012172;28;20969;-74
2023/12/31 10:02:03;;;;;;;1999.90;999.90;;;11.30;44.60;;;;;;5014482;28;20417;-75
2023/12/31 10:04:29;;;;;;;1999.90;999.90;;;13.00;50.00;;;;;;5016130;28;20415;-74
2023/12/31 10:06:56;;;;;;;1999.90;999.90;;;11.30;51.20;;;;;;5016168;28;20476;-73
2023/12/31 10:09:27;;;;;;;1999.90;999.90;;;11.30;53.70;;;;;;5016102;28;20438;-75
2023/12/31 10:11:54;;;;;;;1999.90;999.90;;;11.20;55.00;;;;;;5015885;28;20415;-74
2023/12/31 10:14:19;;;;;;;1999.90;999.90;;;11.20;56.70;;;;;;5015882;28;20823;-74
2023/12/31 10:16:47;;;;;;;1999.90;999.90;;;11.20;54.00;;;;;;5015844;28;20412;-73
2023/12/31 10:19:13;;;;;;;1999.90;999.90;;;11.10;59.30;;;;;;5015807;28;20238;-75
2023/12/31 10:21:41;;;;;;;1999.90;999.90;;;10.90;56.90;;;;;;5015883;28;20439;-74
2023/12/31 10:24:07;;;;;;;1999.90;999.90;;;11.00;56.00;;;;;;5015777;28;20410;-74
2023/12/31 10:26:33;;;;;;;1999.90;999.90;;;11.00;49.80;;;;;;5018610;28;20417;-74
2023/12/31 10:28:59;;;;;;;1999.90;999.90;;;10.90;48.10;;;;;;5016115;28;20451;-76
2023/12/31 10:31:25;;;;;;;1999.90;999.90;;;10.90;50.80;;;;;;5015594;28;20422;-74
2023/12/31 10:33:51;;;;;;;1999.90;999.90;;;11.00;49.90;;;;;;5016106;28;20172;-74
2023/12/31 10:36:23;;;;;;;1999.90;999.90;;;10.90;49.20;;;;;;5016204;28;20446;-74
2023/12/31 10:38:52;;;;;;;1999.90;999.90;;;11.00;48.70;;;;;;5014522;28;20478;-75
2023/12/31 10:41:24;;;;;;;1999.90;999.90;;;11.00;51.20;;;;;;5014405;28;20411;-74
2023/12/31 10:43:51;;;;;;;1999.90;999.90;;;10.90;48.80;;;;;;5015880;28;20410;-74
2023/12/31 10:46:19;;;;;;;1999.90;999.90;;;10.80;51.30;;;;;;5015780;28;20410;-74
2023/12/31 10:49:01;;;;;;;1999.90;999.90;;;10.90;53.30;;;;;;5022637;28;20519;-74
2023/12/31 10:51:27;;;;;;;1999.90;999.90;;;10.70;54.70;;;;;;5021128;28;20770;-73
2023/12/31 10:54:07;;;;;;;1999.90;999.90;;;10.70;54.50;;;;;;5021428;28;20413;-74
2023/12/31 10:56:36;;;;;;;1999.90;999.90;;;10.70;57.60;;;;;;5021147;28;20407;-74
2023/12/31 10:59:05;;;;;;;1999.90;999.90;;;10.60;57.30;;;;;;5019938;28;20458;-72
2023/12/31 11:01:31;;;;;;;1999.90;999.90;;;10.60;59.80;;;;;;5018435;28;20406;-74
2023/12/31 11:03:58;;;;;;;1999.90;999.90;;;10.60;62.40;;;;;;5018312;28;20407;-73
2023/12/31 11:06:25;;;;;;;1999.90;999.90;;;10.50;69.10;;;;;;5015735;28;20498;-72
2023/12/31 11:08:53;;;;;;;1999.90;999.90;;;10.50;68.80;;;;;;5015046;28;20427;-73
2023/12/31 11:11:18;;;;;;;1999.90;999.90;;;10.50;71.80;;;;;;5014816;28;20751;-73
2023/12/31 11:13:49;;;;;;;1999.90;999.90;;;10.50;74.50;;;;;;5014981;28;20510;-72
2023/12/31 11:16:41;;;;;;;1999.90;999.90;;;10.50;71.50;;;;;;5015113;28;20167;-73
2023/12/31 11:19:22;;;;;;;1999.90;999.90;;;10.50;74.40;;;;;;5016986;28;20532;-74
2023/12/31 11:22:06;;;;;;;1999.90;999.90;;;10.40;75.60;;;;;;5015408;28;20477;-72
2023/12/31 11:24:32;;;;;;;1999.90;999.90;;;10.50;73.80;;;;;;5014372;28;20403;-73
2023/12/31 11:27:07;;;;;;;1999.90;999.90;;;10.50;81.30;;;;;;5014595;28;20422;-72
2023/12/31 11:29:33;;;;;;;1999.90;999.90;;;10.50;78.40;;;;;;5054460;23;20318;-74
2023/12/31 11:31:59;;;;;;;1999.90;999.90;;;10.50;82.80;;;;;;5013880;28;20505;-74
2023/12/31 11:34:24;;;;;;;1999.90;999.90;;;10.50;84.80;;;;;;5014257;28;20179;-75
2023/12/31 11:36:54;;;;;;;1999.90;999.90;;;10.50;86.40;;;;;;5014196;28;20178;-76
2023/12/31 11:39:20;;;;;;;1999.90;999.90;;;10.50;84.70;;;;;;5013896;28;20207;-75
2023/12/31 11:41:52;;;;;;;1999.90;999.90;;;10.50;76.20;;;;;;5014005;28;20420;-76
2023/12/31 11:44:37;;;;;;;1999.90;999.90;;;10.50;80.10;;;;;;5013720;28;21059;-76
2023/12/31 11:47:22;;;;;;;1999.90;999.90;;;10.60;81.70;;;;;;5013997;28;20443;-74
2023/12/31 11:49:52;;;;;;;1999.90;999.90;;;10.60;76.80;;;;;;5013807;28;20448;-75
2023/12/31 11:52:31;;;;;;;1999.90;999.90;;;10.60;61.40;;;;;;5013533;28;20426;-73
2023/12/31 11:54:58;;;;;;;1999.90;999.90;;;10.60;63.30;;;;;;5013798;28;20736;-76
2023/12/31 11:57:25;;;;;;;1999.90;999.90;;;10.60;61.30;;;;;;5013729;28;20839;-75
2023/12/31 11:59:53;;;;;;;1999.90;999.90;;;10.50;60.90;;;;;;5013741;28;21056;-76
2023/12/31 12:02:18;;;;;;;1999.90;999.90;;;10.50;65.10;;;;;;5013252;28;20419;-76